Cadiz, Indiana
Current Conditions -  °F | °C
As of 2:53 AM on Friday 28 Nov 2014 (Local Time) from KMIE Reporting Station
Overcast Overcast  
Wind Chill: 24°   Ceiling: 2600
Heat Index: 24°   Visibility: 10mi
Dew Point: 17°   Wind: 0mph
Humidity: 75%   Direction: NA
Pressure: 30.36"   Gusts: NA
Location:  39.9231°N, 85.3444°W
Report Text: KMIE 280753Z AUTO 00000KT 10SM BKN026 OVC033 M04/M08 A3036 RMK AO2 SLP288 T10441083
Loading
Personal Weather Stations






























Interactive Weather Map New forecast layout! Learn more

10-Day Weather Forecast

Advertisements
Track Severe Weather on mobile